sensor_id;sensor_type;location;lat;lon;timestamp;P1;durP1;ratioP1;P2;durP2;ratioP2
67132;SDS011;54052;53.542;49.408;2023-04-06T00:02:17;168.52;;;18.85;;
67132;SDS011;54052;53.542;49.408;2023-04-06T00:04:44;170.23;;;17.35;;
67132;SDS011;54052;53.542;49.408;2023-04-06T00:07:10;167.90;;;17.48;;
67132;SDS011;54052;53.542;49.408;2023-04-06T00:09:37;174.95;;;17.52;;
67132;SDS011;54052;53.542;49.408;2023-04-06T00:12:03;150.18;;;17.25;;
67132;SDS011;54052;53.542;49.408;2023-04-06T00:14:29;168.23;;;17.85;;
67132;SDS011;54052;53.542;49.408;2023-04-06T00:16:56;163.40;;;18.50;;
67132;SDS011;54052;53.542;49.408;2023-04-06T00:19:22;116.90;;;11.98;;
67132;SDS011;54052;53.542;49.408;2023-04-06T00:21:48;109.07;;;11.57;;
67132;SDS011;54052;53.542;49.408;2023-04-06T00:24:15;97.45;;;11.32;;
67132;SDS011;54052;53.542;49.408;2023-04-06T00:26:41;117.78;;;11.45;;
67132;SDS011;54052;53.542;49.408;2023-04-06T00:29:07;122.55;;;11.88;;
67132;SDS011;54052;53.542;49.408;2023-04-06T00:31:34;120.78;;;12.55;;
67132;SDS011;54052;53.542;49.408;2023-04-06T00:34:00;109.75;;;11.88;;
67132;SDS011;54052;53.542;49.408;2023-04-06T00:36:26;133.82;;;11.00;;
67132;SDS011;54052;53.542;49.408;2023-04-06T00:38:53;91.38;;;11.70;;
67132;SDS011;54052;53.542;49.408;2023-04-06T00:41:19;100.10;;;11.63;;
67132;SDS011;54052;53.542;49.408;2023-04-06T00:43:46;107.95;;;10.15;;
67132;SDS011;54052;53.542;49.408;2023-04-06T00:46:12;114.45;;;11.23;;
67132;SDS011;54052;53.542;49.408;2023-04-06T00:48:39;130.63;;;12.90;;
67132;SDS011;54052;53.542;49.408;2023-04-06T00:51:06;93.35;;;10.90;;
67132;SDS011;54052;53.542;49.408;2023-04-06T00:53:32;95.85;;;10.13;;
67132;SDS011;54052;53.542;49.408;2023-04-06T00:55:59;123.75;;;11.68;;
67132;SDS011;54052;53.542;49.408;2023-04-06T00:58:25;116.03;;;11.18;;
67132;SDS011;54052;53.542;49.408;2023-04-06T01:00:51;120.30;;;10.85;;
67132;SDS011;54052;53.542;49.408;2023-04-06T01:03:17;110.70;;;11.73;;
67132;SDS011;54052;53.542;49.408;2023-04-06T01:05:43;94.45;;;9.68;;
67132;SDS011;54052;53.542;49.408;2023-04-06T01:08:10;114.75;;;11.18;;
67132;SDS011;54052;53.542;49.408;2023-04-06T01:10:36;126.75;;;13.20;;
67132;SDS011;54052;53.542;49.408;2023-04-06T01:13:02;130.25;;;10.93;;
67132;SDS011;54052;53.542;49.408;2023-04-06T01:15:29;129.05;;;10.77;;
67132;SDS011;54052;53.542;49.408;2023-04-06T01:17:55;109.95;;;10.25;;
67132;SDS011;54052;53.542;49.408;2023-04-06T01:20:22;112.03;;;11.68;;
67132;SDS011;54052;53.542;49.408;2023-04-06T01:22:48;87.75;;;11.27;;
67132;SDS011;54052;53.542;49.408;2023-04-06T01:25:15;82.70;;;9.57;;
67132;SDS011;54052;53.542;49.408;2023-04-06T01:27:41;108.55;;;8.82;;
67132;SDS011;54052;53.542;49.408;2023-04-06T01:30:08;144.95;;;12.80;;
67132;SDS011;54052;53.542;49.408;2023-04-06T01:32:34;112.00;;;10.32;;
67132;SDS011;54052;53.542;49.408;2023-04-06T01:35:00;106.47;;;9.30;;
67132;SDS011;54052;53.542;49.408;2023-04-06T01:37:26;135.07;;;11.60;;
67132;SDS011;54052;53.542;49.408;2023-04-06T01:39:52;103.43;;;9.75;;
67132;SDS011;54052;53.542;49.408;2023-04-06T01:42:18;104.20;;;11.90;;
67132;SDS011;54052;53.542;49.408;2023-04-06T01:44:45;101.60;;;9.98;;
67132;SDS011;54052;53.542;49.408;2023-04-06T01:47:11;72.97;;;8.45;;
67132;SDS011;54052;53.542;49.408;2023-04-06T01:49:37;107.70;;;9.60;;
67132;SDS011;54052;53.542;49.408;2023-04-06T01:52:03;73.90;;;8.07;;
67132;SDS011;54052;53.542;49.408;2023-04-06T01:54:30;92.93;;;7.47;;
67132;SDS011;54052;53.542;49.408;2023-04-06T01:56:56;95.80;;;8.45;;
67132;SDS011;54052;53.542;49.408;2023-04-06T01:59:22;87.07;;;10.30;;
67132;SDS011;54052;53.542;49.408;2023-04-06T02:01:48;154.77;;;15.88;;
67132;SDS011;54052;53.542;49.408;2023-04-06T02:04:14;129.40;;;14.52;;
67132;SDS011;54052;53.542;49.408;2023-04-06T02:06:40;129.80;;;15.43;;
67132;SDS011;54052;53.542;49.408;2023-04-06T02:09:06;134.70;;;13.45;;
67132;SDS011;54052;53.542;49.408;2023-04-06T02:11:32;138.43;;;14.18;;
67132;SDS011;54052;53.542;49.408;2023-04-06T02:13:58;149.70;;;14.40;;
67132;SDS011;54052;53.542;49.408;2023-04-06T02:16:26;153.27;;;13.82;;
67132;SDS011;54052;53.542;49.408;2023-04-06T02:18:52;106.90;;;13.38;;
67132;SDS011;54052;53.542;49.408;2023-04-06T02:21:18;133.55;;;13.95;;
67132;SDS011;54052;53.542;49.408;2023-04-06T02:23:46;106.93;;;14.57;;
67132;SDS011;54052;53.542;49.408;2023-04-06T02:26:13;155.10;;;13.95;;
67132;SDS011;54052;53.542;49.408;2023-04-06T02:28:39;136.57;;;16.15;;
67132;SDS011;54052;53.542;49.408;2023-04-06T02:31:05;147.20;;;15.13;;
67132;SDS011;54052;53.542;49.408;2023-04-06T02:33:31;135.98;;;14.02;;
67132;SDS011;54052;53.542;49.408;2023-04-06T02:35:57;117.25;;;13.93;;
67132;SDS011;54052;53.542;49.408;2023-04-06T02:38:24;152.50;;;15.23;;
67132;SDS011;54052;53.542;49.408;2023-04-06T02:40:50;103.25;;;13.63;;
67132;SDS011;54052;53.542;49.408;2023-04-06T02:43:16;150.52;;;15.38;;
67132;SDS011;54052;53.542;49.408;2023-04-06T02:45:42;111.18;;;13.68;;
67132;SDS011;54052;53.542;49.408;2023-04-06T02:48:08;119.03;;;14.40;;
67132;SDS011;54052;53.542;49.408;2023-04-06T02:50:35;106.88;;;12.73;;
67132;SDS011;54052;53.542;49.408;2023-04-06T02:53:01;125.35;;;13.63;;
67132;SDS011;54052;53.542;49.408;2023-04-06T02:55:27;130.88;;;12.70;;
67132;SDS011;54052;53.542;49.408;2023-04-06T02:57:53;135.75;;;24.48;;
67132;SDS011;54052;53.542;49.408;2023-04-06T03:00:19;140.38;;;13.23;;
67132;SDS011;54052;53.542;49.408;2023-04-06T03:02:46;128.98;;;13.88;;
67132;SDS011;54052;53.542;49.408;2023-04-06T03:05:12;107.45;;;12.73;;
67132;SDS011;54052;53.542;49.408;2023-04-06T03:07:38;115.85;;;12.18;;
67132;SDS011;54052;53.542;49.408;2023-04-06T03:10:04;113.43;;;13.55;;
67132;SDS011;54052;53.542;49.408;2023-04-06T03:12:31;114.03;;;12.68;;
67132;SDS011;54052;53.542;49.408;2023-04-06T03:14:57;90.57;;;11.88;;
67132;SDS011;54052;53.542;49.408;2023-04-06T03:17:23;111.53;;;10.65;;
67132;SDS011;54052;53.542;49.408;2023-04-06T03:19:49;101.60;;;12.57;;
67132;SDS011;54052;53.542;49.408;2023-04-06T03:22:15;95.43;;;11.27;;
67132;SDS011;54052;53.542;49.408;2023-04-06T03:24:41;87.93;;;9.77;;
67132;SDS011;54052;53.542;49.408;2023-04-06T03:27:07;111.38;;;12.20;;
67132;SDS011;54052;53.542;49.408;2023-04-06T03:29:33;59.90;;;6.97;;
67132;SDS011;54052;53.542;49.408;2023-04-06T03:31:59;62.83;;;6.15;;
67132;SDS011;54052;53.542;49.408;2023-04-06T03:34:26;52.40;;;7.38;;
67132;SDS011;54052;53.542;49.408;2023-04-06T03:36:52;54.55;;;6.90;;
67132;SDS011;54052;53.542;49.408;2023-04-06T03:39:18;65.72;;;5.95;;
67132;SDS011;54052;53.542;49.408;2023-04-06T03:41:44;64.32;;;6.20;;
67132;SDS011;54052;53.542;49.408;2023-04-06T03:44:10;59.95;;;5.95;;
67132;SDS011;54052;53.542;49.408;2023-04-06T03:46:36;44.28;;;5.55;;
67132;SDS011;54052;53.542;49.408;2023-04-06T03:49:02;50.50;;;6.00;;
67132;SDS011;54052;53.542;49.408;2023-04-06T03:51:28;62.15;;;4.93;;
67132;SDS011;54052;53.542;49.408;2023-04-06T03:53:55;57.85;;;5.97;;
67132;SDS011;54052;53.542;49.408;2023-04-06T03:56:21;57.75;;;6.70;;
67132;SDS011;54052;53.542;49.408;2023-04-06T03:58:47;58.90;;;6.13;;
67132;SDS011;54052;53.542;49.408;2023-04-06T04:01:19;50.65;;;5.93;;
67132;SDS011;54052;53.542;49.408;2023-04-06T04:03:45;65.07;;;5.85;;
67132;SDS011;54052;53.542;49.408;2023-04-06T04:06:12;63.80;;;5.45;;
67132;SDS011;54052;53.542;49.408;2023-04-06T04:08:38;124.28;;;8.73;;
67132;SDS011;54052;53.542;49.408;2023-04-06T04:11:04;75.25;;;6.70;;
67132;SDS011;54052;53.542;49.408;2023-04-06T04:13:30;74.45;;;6.10;;
67132;SDS011;54052;53.542;49.408;2023-04-06T04:15:56;57.38;;;5.55;;
67132;SDS011;54052;53.542;49.408;2023-04-06T04:18:23;59.58;;;7.38;;
67132;SDS011;54052;53.542;49.408;2023-04-06T04:20:50;80.57;;;18.48;;
67132;SDS011;54052;53.542;49.408;2023-04-06T04:23:16;72.72;;;5.88;;
67132;SDS011;54052;53.542;49.408;2023-04-06T04:25:43;55.28;;;6.18;;
67132;SDS011;54052;53.542;49.408;2023-04-06T04:28:09;67.03;;;8.10;;
67132;SDS011;54052;53.542;49.408;2023-04-06T04:30:35;54.95;;;6.00;;
67132;SDS011;54052;53.542;49.408;2023-04-06T04:33:02;60.38;;;6.35;;
67132;SDS011;54052;53.542;49.408;2023-04-06T04:35:28;51.42;;;5.40;;
67132;SDS011;54052;53.542;49.408;2023-04-06T04:37:54;54.58;;;6.88;;
67132;SDS011;54052;53.542;49.408;2023-04-06T04:40:20;50.15;;;4.97;;
67132;SDS011;54052;53.542;49.408;2023-04-06T04:42:47;39.13;;;5.45;;
67132;SDS011;54052;53.542;49.408;2023-04-06T04:45:13;41.15;;;5.10;;
67132;SDS011;54052;53.542;49.408;2023-04-06T04:47:39;47.55;;;4.82;;
67132;SDS011;54052;53.542;49.408;2023-04-06T04:50:05;77.47;;;6.60;;
67132;SDS011;54052;53.542;49.408;2023-04-06T04:52:31;64.78;;;4.78;;
67132;SDS011;54052;53.542;49.408;2023-04-06T04:54:58;51.58;;;5.18;;
67132;SDS011;54052;53.542;49.408;2023-04-06T04:57:24;38.65;;;4.85;;
67132;SDS011;54052;53.542;49.408;2023-04-06T04:59:50;59.03;;;5.75;;
67132;SDS011;54052;53.542;49.408;2023-04-06T05:02:16;47.88;;;5.07;;
67132;SDS011;54052;53.542;49.408;2023-04-06T05:04:42;36.95;;;4.22;;
67132;SDS011;54052;53.542;49.408;2023-04-06T05:07:08;62.10;;;5.20;;
67132;SDS011;54052;53.542;49.408;2023-04-06T05:09:35;47.20;;;5.18;;
67132;SDS011;54052;53.542;49.408;2023-04-06T05:12:01;49.28;;;3.55;;
67132;SDS011;54052;53.542;49.408;2023-04-06T05:14:27;28.42;;;3.83;;
67132;SDS011;54052;53.542;49.408;2023-04-06T05:16:53;30.55;;;3.33;;
67132;SDS011;54052;53.542;49.408;2023-04-06T05:19:20;20.13;;;2.88;;
67132;SDS011;54052;53.542;49.408;2023-04-06T05:21:46;35.67;;;3.47;;
67132;SDS011;54052;53.542;49.408;2023-04-06T05:24:12;27.40;;;4.07;;
67132;SDS011;54052;53.542;49.408;2023-04-06T05:26:38;43.63;;;3.58;;
67132;SDS011;54052;53.542;49.408;2023-04-06T05:29:05;29.95;;;2.83;;
67132;SDS011;54052;53.542;49.408;2023-04-06T05:31:31;38.95;;;3.58;;
67132;SDS011;54052;53.542;49.408;2023-04-06T05:33:57;29.40;;;2.65;;
67132;SDS011;54052;53.542;49.408;2023-04-06T05:36:23;33.38;;;2.45;;
67132;SDS011;54052;53.542;49.408;2023-04-06T05:38:51;26.35;;;3.13;;
67132;SDS011;54052;53.542;49.408;2023-04-06T05:41:18;23.35;;;4.72;;
67132;SDS011;54052;53.542;49.408;2023-04-06T05:43:44;38.78;;;3.85;;
67132;SDS011;54052;53.542;49.408;2023-04-06T05:46:10;71.22;;;4.50;;
67132;SDS011;54052;53.542;49.408;2023-04-06T05:48:36;38.42;;;4.03;;
67132;SDS011;54052;53.542;49.408;2023-04-06T05:51:02;26.75;;;3.33;;
67132;SDS011;54052;53.542;49.408;2023-04-06T05:53:31;37.60;;;3.78;;
67132;SDS011;54052;53.542;49.408;2023-04-06T05:56:01;41.15;;;4.47;;
67132;SDS011;54052;53.542;49.408;2023-04-06T05:58:28;26.70;;;3.28;;
67132;SDS011;54052;53.542;49.408;2023-04-06T06:01:01;51.95;;;3.33;;
67132;SDS011;54052;53.542;49.408;2023-04-06T06:03:28;30.90;;;3.17;;
67132;SDS011;54052;53.542;49.408;2023-04-06T06:06:01;23.92;;;4.00;;
67132;SDS011;54052;53.542;49.408;2023-04-06T06:08:28;25.83;;;4.13;;
67132;SDS011;54052;53.542;49.408;2023-04-06T06:10:55;27.45;;;3.40;;
67132;SDS011;54052;53.542;49.408;2023-04-06T06:13:22;32.80;;;4.22;;
67132;SDS011;54052;53.542;49.408;2023-04-06T06:15:49;26.75;;;3.17;;
67132;SDS011;54052;53.542;49.408;2023-04-06T06:18:15;39.13;;;4.30;;
67132;SDS011;54052;53.542;49.408;2023-04-06T06:20:41;26.25;;;3.38;;
67132;SDS011;54052;53.542;49.408;2023-04-06T06:23:08;28.23;;;2.92;;
67132;SDS011;54052;53.542;49.408;2023-04-06T06:25:34;37.00;;;2.95;;
67132;SDS011;54052;53.542;49.408;2023-04-06T06:28:00;22.88;;;2.35;;
67132;SDS011;54052;53.542;49.408;2023-04-06T06:30:26;44.35;;;3.22;;
67132;SDS011;54052;53.542;49.408;2023-04-06T06:32:52;32.97;;;3.30;;
67132;SDS011;54052;53.542;49.408;2023-04-06T06:35:18;32.50;;;3.45;;
67132;SDS011;54052;53.542;49.408;2023-04-06T06:37:44;31.83;;;2.92;;
67132;SDS011;54052;53.542;49.408;2023-04-06T06:40:10;31.08;;;3.58;;
67132;SDS011;54052;53.542;49.408;2023-04-06T06:42:41;47.60;;;3.33;;
67132;SDS011;54052;53.542;49.408;2023-04-06T06:45:07;25.88;;;2.00;;
67132;SDS011;54052;53.542;49.408;2023-04-06T06:47:34;29.60;;;2.60;;
67132;SDS011;54052;53.542;49.408;2023-04-06T06:50:00;29.38;;;2.25;;
67132;SDS011;54052;53.542;49.408;2023-04-06T06:52:28;43.25;;;3.60;;
67132;SDS011;54052;53.542;49.408;2023-04-06T06:54:54;39.83;;;4.13;;
67132;SDS011;54052;53.542;49.408;2023-04-06T06:57:22;30.35;;;3.50;;
67132;SDS011;54052;53.542;49.408;2023-04-06T06:59:48;27.05;;;3.35;;
67132;SDS011;54052;53.542;49.408;2023-04-06T07:02:14;38.65;;;3.17;;
67132;SDS011;54052;53.542;49.408;2023-04-06T07:04:40;30.05;;;2.10;;
67132;SDS011;54052;53.542;49.408;2023-04-06T07:07:06;31.75;;;3.70;;
67132;SDS011;54052;53.542;49.408;2023-04-06T07:09:33;37.22;;;4.60;;
67132;SDS011;54052;53.542;49.408;2023-04-06T07:12:00;61.47;;;3.50;;
67132;SDS011;54052;53.542;49.408;2023-04-06T07:14:27;36.92;;;4.13;;
67132;SDS011;54052;53.542;49.408;2023-04-06T07:16:53;27.77;;;3.47;;
67132;SDS011;54052;53.542;49.408;2023-04-06T07:19:20;34.90;;;4.38;;
67132;SDS011;54052;53.542;49.408;2023-04-06T07:21:47;44.95;;;3.22;;
67132;SDS011;54052;53.542;49.408;2023-04-06T07:24:14;33.10;;;3.88;;
67132;SDS011;54052;53.542;49.408;2023-04-06T07:26:41;29.50;;;3.30;;
67132;SDS011;54052;53.542;49.408;2023-04-06T07:29:08;88.40;;;5.85;;
67132;SDS011;54052;53.542;49.408;2023-04-06T07:31:35;67.38;;;4.53;;
67132;SDS011;54052;53.542;49.408;2023-04-06T07:34:01;27.05;;;3.38;;
67132;SDS011;54052;53.542;49.408;2023-04-06T07:36:27;21.98;;;2.42;;
67132;SDS011;54052;53.542;49.408;2023-04-06T07:38:54;36.03;;;3.38;;
67132;SDS011;54052;53.542;49.408;2023-04-06T07:41:20;27.95;;;3.28;;
67132;SDS011;54052;53.542;49.408;2023-04-06T07:43:47;37.08;;;3.33;;
67132;SDS011;54052;53.542;49.408;2023-04-06T07:46:13;26.88;;;2.65;;
67132;SDS011;54052;53.542;49.408;2023-04-06T07:48:39;43.10;;;5.93;;
67132;SDS011;54052;53.542;49.408;2023-04-06T07:51:06;25.45;;;2.58;;
67132;SDS011;54052;53.542;49.408;2023-04-06T07:53:32;21.75;;;2.92;;
67132;SDS011;54052;53.542;49.408;2023-04-06T07:55:58;25.80;;;3.03;;
67132;SDS011;54052;53.542;49.408;2023-04-06T07:58:25;26.52;;;2.05;;
67132;SDS011;54052;53.542;49.408;2023-04-06T08:00:51;24.48;;;2.95;;
67132;SDS011;54052;53.542;49.408;2023-04-06T08:03:17;32.50;;;5.07;;
67132;SDS011;54052;53.542;49.408;2023-04-06T08:05:46;37.35;;;3.05;;
67132;SDS011;54052;53.542;49.408;2023-04-06T08:08:12;38.13;;;2.90;;
67132;SDS011;54052;53.542;49.408;2023-04-06T08:10:38;28.85;;;3.33;;
67132;SDS011;54052;53.542;49.408;2023-04-06T08:13:04;34.50;;;4.03;;
67132;SDS011;54052;53.542;49.408;2023-04-06T08:15:30;39.28;;;3.15;;
67132;SDS011;54052;53.542;49.408;2023-04-06T08:17:56;67.60;;;4.05;;
67132;SDS011;54052;53.542;49.408;2023-04-06T08:20:23;16.55;;;2.40;;
67132;SDS011;54052;53.542;49.408;2023-04-06T08:22:49;29.08;;;2.53;;
67132;SDS011;54052;53.542;49.408;2023-04-06T08:25:15;25.27;;;2.40;;
67132;SDS011;54052;53.542;49.408;2023-04-06T08:27:41;19.05;;;2.22;;
67132;SDS011;54052;53.542;49.408;2023-04-06T08:30:07;28.10;;;3.17;;
67132;SDS011;54052;53.542;49.408;2023-04-06T08:32:33;35.28;;;2.72;;
67132;SDS011;54052;53.542;49.408;2023-04-06T08:34:59;84.35;;;4.18;;
67132;SDS011;54052;53.542;49.408;2023-04-06T08:37:25;15.43;;;2.55;;
67132;SDS011;54052;53.542;49.408;2023-04-06T08:39:52;18.92;;;2.90;;
67132;SDS011;54052;53.542;49.408;2023-04-06T08:42:21;22.33;;;2.10;;
67132;SDS011;54052;53.542;49.408;2023-04-06T08:44:50;12.90;;;2.30;;
67132;SDS011;54052;53.542;49.408;2023-04-06T08:47:17;13.50;;;2.20;;
67132;SDS011;54052;53.542;49.408;2023-04-06T08:49:44;25.88;;;2.17;;
67132;SDS011;54052;53.542;49.408;2023-04-06T08:52:11;21.90;;;1.83;;
67132;SDS011;54052;53.542;49.408;2023-04-06T08:54:38;29.52;;;2.15;;
67132;SDS011;54052;53.542;49.408;2023-04-06T08:57:04;28.60;;;3.30;;
67132;SDS011;54052;53.542;49.408;2023-04-06T08:59:31;62.75;;;2.95;;
67132;SDS011;54052;53.542;49.408;2023-04-06T09:01:59;14.38;;;2.35;;
67132;SDS011;54052;53.542;49.408;2023-04-06T09:04:28;27.27;;;2.20;;
67132;SDS011;54052;53.542;49.408;2023-04-06T09:06:54;16.65;;;1.98;;
67132;SDS011;54052;53.542;49.408;2023-04-06T09:09:20;36.50;;;2.05;;
67132;SDS011;54052;53.542;49.408;2023-04-06T09:11:50;21.65;;;2.72;;
67132;SDS011;54052;53.542;49.408;2023-04-06T09:14:17;27.17;;;2.60;;
67132;SDS011;54052;53.542;49.408;2023-04-06T09:16:58;16.95;;;2.15;;
67132;SDS011;54052;53.542;49.408;2023-04-06T09:19:24;28.70;;;2.25;;
67132;SDS011;54052;53.542;49.408;2023-04-06T09:22:00;13.43;;;2.53;;
67132;SDS011;54052;53.542;49.408;2023-04-06T09:24:28;24.13;;;3.15;;
67132;SDS011;54052;53.542;49.408;2023-04-06T09:27:04;44.42;;;2.58;;
67132;SDS011;54052;53.542;49.408;2023-04-06T09:29:30;22.20;;;2.28;;
67132;SDS011;54052;53.542;49.408;2023-04-06T09:32:04;29.38;;;4.00;;
67132;SDS011;54052;53.542;49.408;2023-04-06T09:34:31;28.17;;;2.25;;
67132;SDS011;54052;53.542;49.408;2023-04-06T09:36:58;47.30;;;3.42;;
67132;SDS011;54052;53.542;49.408;2023-04-06T09:39:24;10.50;;;1.50;;
67132;SDS011;54052;53.542;49.408;2023-04-06T09:41:51;17.48;;;3.45;;
67132;SDS011;54052;53.542;49.408;2023-04-06T09:44:19;22.02;;;3.72;;
67132;SDS011;54052;53.542;49.408;2023-04-06T09:46:46;33.80;;;2.88;;
67132;SDS011;54052;53.542;49.408;2023-04-06T09:49:13;48.83;;;3.65;;
67132;SDS011;54052;53.542;49.408;2023-04-06T09:51:47;24.70;;;3.17;;
67132;SDS011;54052;53.542;49.408;2023-04-06T09:54:19;19.33;;;3.22;;
67132;SDS011;54052;53.542;49.408;2023-04-06T09:56:51;29.83;;;3.33;;
67132;SDS011;54052;53.542;49.408;2023-04-06T10:05:23;19.30;;;1.67;;
67132;SDS011;54052;53.542;49.408;2023-04-06T10:08:06;23.65;;;2.08;;
67132;SDS011;54052;53.542;49.408;2023-04-06T10:10:34;22.10;;;1.88;;
67132;SDS011;54052;53.542;49.408;2023-04-06T10:13:01;16.20;;;1.65;;
67132;SDS011;54052;53.542;49.408;2023-04-06T10:15:29;9.63;;;1.70;;
67132;SDS011;54052;53.542;49.408;2023-04-06T10:17:59;15.50;;;2.00;;
67132;SDS011;54052;53.542;49.408;2023-04-06T10:20:39;16.92;;;1.70;;
67132;SDS011;54052;53.542;49.408;2023-04-06T10:25:57;12.23;;;1.90;;
67132;SDS011;54052;53.542;49.408;2023-04-06T10:28:25;16.55;;;1.25;;
67132;SDS011;54052;53.542;49.408;2023-04-06T10:31:00;13.98;;;2.40;;
67132;SDS011;54052;53.542;49.408;2023-04-06T10:33:32;15.00;;;1.80;;
67132;SDS011;54052;53.542;49.408;2023-04-06T10:36:09;61.22;;;4.30;;
67132;SDS011;54052;53.542;49.408;2023-04-06T10:38:40;22.05;;;2.22;;
67132;SDS011;54052;53.542;49.408;2023-04-06T10:41:08;20.17;;;2.10;;
67132;SDS011;54052;53.542;49.408;2023-04-06T10:43:37;21.27;;;1.90;;
67132;SDS011;54052;53.542;49.408;2023-04-06T10:46:05;18.58;;;2.10;;
67132;SDS011;54052;53.542;49.408;2023-04-06T10:48:39;17.00;;;2.78;;
67132;SDS011;54052;53.542;49.408;2023-04-06T10:51:08;17.70;;;2.13;;
67132;SDS011;54052;53.542;49.408;2023-04-06T10:53:38;39.53;;;2.53;;
67132;SDS011;54052;53.542;49.408;2023-04-06T10:56:10;23.38;;;2.75;;
67132;SDS011;54052;53.542;49.408;2023-04-06T10:58:38;138.02;;;6.88;;
67132;SDS011;54052;53.542;49.408;2023-04-06T11:01:10;19.30;;;2.50;;
67132;SDS011;54052;53.542;49.408;2023-04-06T11:03:44;21.33;;;1.92;;
67132;SDS011;54052;53.542;49.408;2023-04-06T11:06:18;27.95;;;3.08;;
67132;SDS011;54052;53.542;49.408;2023-04-06T11:08:48;15.60;;;1.23;;
67132;SDS011;54052;53.542;49.408;2023-04-06T11:11:17;37.97;;;3.10;;
67132;SDS011;54052;53.542;49.408;2023-04-06T11:13:49;11.85;;;2.45;;
67132;SDS011;54052;53.542;49.408;2023-04-06T11:16:23;20.88;;;2.38;;
67132;SDS011;54052;53.542;49.408;2023-04-06T11:19:04;23.33;;;2.17;;
67132;SDS011;54052;53.542;49.408;2023-04-06T11:24:06;14.63;;;1.67;;
67132;SDS011;54052;53.542;49.408;2023-04-06T11:26:40;17.95;;;2.63;;
67132;SDS011;54052;53.542;49.408;2023-04-06T11:29:17;20.35;;;1.55;;
67132;SDS011;54052;53.542;49.408;2023-04-06T11:31:46;10.70;;;1.70;;
67132;SDS011;54052;53.542;49.408;2023-04-06T11:34:15;15.10;;;1.80;;
67132;SDS011;54052;53.542;49.408;2023-04-06T11:36:49;15.43;;;1.00;;
67132;SDS011;54052;53.542;49.408;2023-04-06T11:39:21;16.45;;;1.20;;
67132;SDS011;54052;53.542;49.408;2023-04-06T11:41:53;39.00;;;1.88;;
67132;SDS011;54052;53.542;49.408;2023-04-06T11:47:00;17.67;;;2.25;;
67132;SDS011;54052;53.542;49.408;2023-04-06T11:49:31;24.63;;;1.90;;
67132;SDS011;54052;53.542;49.408;2023-04-06T11:51:58;23.38;;;1.85;;
67132;SDS011;54052;53.542;49.408;2023-04-06T11:54:29;11.15;;;2.05;;
67132;SDS011;54052;53.542;49.408;2023-04-06T11:56:57;6.47;;;1.20;;
67132;SDS011;54052;53.542;49.408;2023-04-06T11:59:23;4.60;;;1.50;;
67132;SDS011;54052;53.542;49.408;2023-04-06T12:01:49;19.17;;;1.83;;
67132;SDS011;54052;53.542;49.408;2023-04-06T12:04:17;17.48;;;1.60;;
67132;SDS011;54052;53.542;49.408;2023-04-06T12:06:43;28.58;;;1.60;;
67132;SDS011;54052;53.542;49.408;2023-04-06T12:09:10;13.23;;;1.40;;
67132;SDS011;54052;53.542;49.408;2023-04-06T12:11:36;19.20;;;1.83;;
67132;SDS011;54052;53.542;49.408;2023-04-06T12:14:03;15.15;;;1.48;;
67132;SDS011;54052;53.542;49.408;2023-04-06T12:16:30;16.85;;;1.00;;
67132;SDS011;54052;53.542;49.408;2023-04-06T12:18:57;19.00;;;1.75;;
67132;SDS011;54052;53.542;49.408;2023-04-06T12:21:23;16.33;;;1.60;;
67132;SDS011;54052;53.542;49.408;2023-04-06T12:23:50;31.95;;;1.38;;
67132;SDS011;54052;53.542;49.408;2023-04-06T12:26:16;14.85;;;1.15;;
67132;SDS011;54052;53.542;49.408;2023-04-06T12:28:42;36.92;;;2.25;;
67132;SDS011;54052;53.542;49.408;2023-04-06T12:31:20;26.73;;;2.08;;
67132;SDS011;54052;53.542;49.408;2023-04-06T12:33:47;32.88;;;2.80;;
67132;SDS011;54052;53.542;49.408;2023-04-06T12:36:15;23.52;;;1.65;;
67132;SDS011;54052;53.542;49.408;2023-04-06T12:38:47;11.20;;;2.05;;
67132;SDS011;54052;53.542;49.408;2023-04-06T12:41:14;8.38;;;1.10;;
67132;SDS011;54052;53.542;49.408;2023-04-06T12:43:40;42.00;;;2.72;;
67132;SDS011;54052;53.542;49.408;2023-04-06T12:46:08;12.13;;;1.65;;
67132;SDS011;54052;53.542;49.408;2023-04-06T12:48:34;17.38;;;1.70;;
67132;SDS011;54052;53.542;49.408;2023-04-06T12:51:03;27.38;;;3.17;;
67132;SDS011;54052;53.542;49.408;2023-04-06T12:53:31;21.08;;;2.17;;
67132;SDS011;54052;53.542;49.408;2023-04-06T12:55:58;15.15;;;1.45;;
67132;SDS011;54052;53.542;49.408;2023-04-06T12:58:24;21.48;;;1.30;;
67132;SDS011;54052;53.542;49.408;2023-04-06T13:00:55;19.55;;;2.63;;
67132;SDS011;54052;53.542;49.408;2023-04-06T13:03:23;14.70;;;2.25;;
67132;SDS011;54052;53.542;49.408;2023-04-06T13:05:50;48.65;;;2.78;;
67132;SDS011;54052;53.542;49.408;2023-04-06T13:08:17;17.67;;;2.25;;
67132;SDS011;54052;53.542;49.408;2023-04-06T13:10:46;23.58;;;2.00;;
67132;SDS011;54052;53.542;49.408;2023-04-06T13:13:14;18.13;;;2.10;;
67132;SDS011;54052;53.542;49.408;2023-04-06T13:15:41;15.20;;;1.63;;
67132;SDS011;54052;53.542;49.408;2023-04-06T13:18:07;23.05;;;2.33;;
67132;SDS011;54052;53.542;49.408;2023-04-06T13:20:34;50.50;;;3.75;;
67132;SDS011;54052;53.542;49.408;2023-04-06T13:23:01;11.40;;;1.23;;
67132;SDS011;54052;53.542;49.408;2023-04-06T13:25:27;34.00;;;2.38;;
67132;SDS011;54052;53.542;49.408;2023-04-06T13:27:55;14.95;;;2.15;;
67132;SDS011;54052;53.542;49.408;2023-04-06T13:30:21;18.25;;;1.75;;
67132;SDS011;54052;53.542;49.408;2023-04-06T13:32:47;21.58;;;1.08;;
67132;SDS011;54052;53.542;49.408;2023-04-06T13:35:14;24.80;;;1.55;;
67132;SDS011;54052;53.542;49.408;2023-04-06T13:37:42;31.73;;;2.20;;
67132;SDS011;54052;53.542;49.408;2023-04-06T13:40:08;21.52;;;1.05;;
67132;SDS011;54052;53.542;49.408;2023-04-06T13:42:35;13.98;;;1.15;;
67132;SDS011;54052;53.542;49.408;2023-04-06T13:45:01;20.15;;;3.30;;
67132;SDS011;54052;53.542;49.408;2023-04-06T13:47:28;28.60;;;7.20;;
67132;SDS011;54052;53.542;49.408;2023-04-06T13:49:54;21.25;;;6.03;;
67132;SDS011;54052;53.542;49.408;2023-04-06T13:52:21;17.48;;;2.63;;
67132;SDS011;54052;53.542;49.408;2023-04-06T13:54:48;16.85;;;2.42;;
67132;SDS011;54052;53.542;49.408;2023-04-06T13:57:16;23.52;;;2.58;;
67132;SDS011;54052;53.542;49.408;2023-04-06T13:59:42;10.32;;;1.85;;
67132;SDS011;54052;53.542;49.408;2023-04-06T14:02:09;25.25;;;2.05;;
67132;SDS011;54052;53.542;49.408;2023-04-06T14:04:36;18.88;;;1.27;;
67132;SDS011;54052;53.542;49.408;2023-04-06T14:07:03;29.50;;;2.00;;
67132;SDS011;54052;53.542;49.408;2023-04-06T14:09:29;16.50;;;1.48;;
67132;SDS011;54052;53.542;49.408;2023-04-06T14:11:56;13.40;;;1.55;;
67132;SDS011;54052;53.542;49.408;2023-04-06T14:14:22;17.17;;;2.25;;
67132;SDS011;54052;53.542;49.408;2023-04-06T14:16:49;24.67;;;1.80;;
67132;SDS011;54052;53.542;49.408;2023-04-06T14:19:16;7.38;;;1.73;;
67132;SDS011;54052;53.542;49.408;2023-04-06T14:21:47;24.98;;;2.05;;
67132;SDS011;54052;53.542;49.408;2023-04-06T14:24:14;18.80;;;1.38;;
67132;SDS011;54052;53.542;49.408;2023-04-06T14:26:41;13.15;;;1.17;;
67132;SDS011;54052;53.542;49.408;2023-04-06T14:29:08;18.02;;;2.10;;
67132;SDS011;54052;53.542;49.408;2023-04-06T14:31:35;7.18;;;1.17;;